Time;durP1;ratioP1;P1;durP2;ratioP2;P2;SDS_P1;SDS_P2;PMS_P1;PMS_P2;Temp;Humidity;BMP_temperature;BMP_pressure;BME280_temperature;BME280_humidity;BME280_pressure;Samples;Min_cycle;Max_cycle;Signal;HPM_P1;HPM_P2
2022/12/26 00:00:00;;;;;;;8.18;2.83;;;;;;;;;;5062208;28;20082;-71
2022/12/26 00:02:46;;;;;;;4.78;2.55;;;;;;;;;;5036075;28;20361;-72
2022/12/26 00:05:35;;;;;;;5.03;2.42;;;;;;;;;;5049740;28;20051;-73
2022/12/26 00:08:21;;;;;;;5.85;2.53;;;;;;;;;;5049825;28;20284;-72
2022/12/26 00:11:06;;;;;;;4.95;2.50;;;;;;;;;;5047139;28;20040;-75
2022/12/26 00:13:56;;;;;;;5.78;2.65;;;;;;;;;;5043202;28;20041;-75
2022/12/26 00:16:41;;;;;;;;;;;;;;;;;;5049129;28;20033;-75
2022/12/26 00:19:26;;;;;;;5.20;2.50;;;;;;;;;;5046348;28;19934;-75
2022/12/26 00:22:11;;;;;;;6.20;2.78;;;;;;;;;;5050974;28;20143;-76
2022/12/26 00:24:56;;;;;;;6.03;3.15;;;;;;;;;;5042420;28;20025;-75
2022/12/26 00:27:41;;;;;;;3.97;2.35;;;;;;;;;;5058939;28;20036;-70
2022/12/26 00:30:27;;;;;;;13.98;3.88;;;;;;;;;;5058534;28;20028;-72
2022/12/26 00:33:12;;;;;;;6.40;3.30;;;;;;;;;;5052359;28;20144;-71
2022/12/26 00:36:01;;;;;;;5.38;2.95;;;;;;;;;;5046542;28;20043;-72
2022/12/26 00:38:47;;;;;;;7.25;3.28;;;;;;;;;;5052732;28;20044;-75
2022/12/26 00:41:32;;;;;;;7.25;3.05;;;;;;;;;;5052457;28;20776;-72
2022/12/26 00:44:17;;;;;;;5.28;2.67;;;;;;;;;;5045738;28;20028;-72
2022/12/26 00:47:02;;;;;;;6.25;2.90;;;;;;;;;;5045262;28;20041;-74
2022/12/26 00:49:48;;;;;;;6.47;2.15;;;;;;;;;;5058055;28;20036;-72
2022/12/26 00:52:33;;;;;;;5.22;2.75;;;;;;;;;;5054813;28;20036;-71
2022/12/26 00:55:18;;;;;;;5.63;2.28;;;;;;;;;;5062977;28;20028;-71
2022/12/26 00:58:03;;;;;;;10.60;3.08;;;;;;;;;;5065487;28;20482;-73
2022/12/26 01:00:49;;;;;;;5.35;2.25;;;;;;;;;;5060926;28;20052;-72
2022/12/26 01:03:35;;;;;;;7.88;3.30;;;;;;;;;;5063584;28;20388;-69
2022/12/26 01:06:20;;;;;;;5.18;2.67;;;;;;;;;;5050235;28;20436;-73
2022/12/26 01:09:05;;;;;;;5.20;2.67;;;;;;;;;;5042136;28;20052;-75
2022/12/26 01:11:50;;;;;;;3.97;2.58;;;;;;;;;;5057138;28;20128;-72
2022/12/26 01:14:35;;;;;;;6.50;2.60;;;;;;;;;;5040407;28;20047;-73
2022/12/26 01:17:21;;;;;;;4.22;2.50;;;;;;;;;;5058605;28;20066;-73
2022/12/26 01:20:06;;;;;;;4.60;2.40;;;;;;;;;;5049879;28;20020;-76
2022/12/26 01:22:52;;;;;;;6.60;2.42;;;;;;;;;;5049486;28;20396;-75
2022/12/26 01:25:38;;;;;;;3.80;2.30;;;;;;;;;;5040645;28;20387;-81
2022/12/26 01:28:23;;;;;;;6.07;2.70;;;;;;;;;;5051929;28;20033;-81
2022/12/26 01:31:08;;;;;;;5.75;2.60;;;;;;;;;;5058386;28;20028;-80
2022/12/26 01:33:53;;;;;;;4.47;2.42;;;;;;;;;;5050002;28;20028;-80
2022/12/26 01:36:38;;;;;;;4.07;2.33;;;;;;;;;;5065859;28;20024;-80
2022/12/26 01:39:24;;;;;;;4.93;2.35;;;;;;;;;;5043670;28;20302;-80
2022/12/26 01:42:13;;;;;;;4.38;2.28;;;;;;;;;;5058439;28;20494;-73
2022/12/26 01:45:17;;;;;;;4.05;2.40;;;;;;;;;;5044416;28;20098;-70
2022/12/26 01:48:04;;;;;;;6.05;2.75;;;;;;;;;;5052381;28;20511;-68
2022/12/26 01:50:52;;;;;;;5.88;2.30;;;;;;;;;;5052633;28;20475;-69
2022/12/26 01:53:41;;;;;;;4.63;2.45;;;;;;;;;;5047866;28;20123;-69
2022/12/26 01:56:35;;;;;;;4.03;2.78;;;;;;;;;;5045405;28;20031;-67
2022/12/26 01:59:23;;;;;;;4.55;2.78;;;;;;;;;;5035330;28;20496;-73
2022/12/26 02:02:09;;;;;;;8.23;2.90;;;;;;;;;;5040567;28;20032;-74
2022/12/26 02:08:04;;;;;;;4.07;2.10;;;;;;;;;;5062853;28;20056;-73
2022/12/26 02:10:55;;;;;;;4.05;2.53;;;;;;;;;;5052121;28;20036;-73
2022/12/26 02:13:41;;;;;;;5.45;2.58;;;;;;;;;;5031972;28;20086;-73
2022/12/26 02:16:26;;;;;;;5.22;2.28;;;;;;;;;;5046522;28;20124;-73
2022/12/26 02:19:20;;;;;;;5.10;2.05;;;;;;;;;;5046040;28;20024;-70
2022/12/26 02:22:20;;;;;;;3.40;2.35;;;;;;;;;;5047697;28;20040;-67
2022/12/26 02:25:19;;;;;;;4.57;2.58;;;;;;;;;;5039945;28;20044;-69
2022/12/26 02:28:20;;;;;;;5.35;2.53;;;;;;;;;;5059331;28;20089;-68
2022/12/26 02:31:10;;;;;;;9.68;3.35;;;;;;;;;;5058370;28;20047;-67
2022/12/26 02:34:03;;;;;;;4.82;2.55;;;;;;;;;;5043813;28;20531;-68
2022/12/26 02:37:08;;;;;;;2.95;2.22;;;;;;;;;;5054043;28;20036;-81
2022/12/26 02:40:12;;;;;;;4.05;2.22;;;;;;;;;;5055475;28;20086;-80
2022/12/26 02:43:20;;;;;;;4.45;2.10;;;;;;;;;;5042612;28;20045;-81
2022/12/26 02:49:25;;;;;;;8.90;2.78;;;;;;;;;;5054082;28;20032;-80
2022/12/26 03:13:55;;;;;;;4.63;2.30;;;;;;;;;;5045361;28;20430;-72
2022/12/26 03:19:58;;;;;;;4.22;2.10;;;;;;;;;;5040648;28;20040;-74
2022/12/26 03:22:48;;;;;;;4.40;2.17;;;;;;;;;;5059388;28;20041;-76
2022/12/26 03:28:46;;;;;;;5.07;2.58;;;;;;;;;;5039761;28;20225;-74
2022/12/26 03:31:32;;;;;;;4.57;2.65;;;;;;;;;;5048535;28;20355;-78
2022/12/26 03:34:17;;;;;;;3.08;2.13;;;;;;;;;;5060541;28;20021;-78
2022/12/26 03:37:08;;;;;;;3.13;2.28;;;;;;;;;;5055067;28;20376;-76
2022/12/26 04:44:05;;;;;;;3.58;2.38;;;;;;;;;;5057936;28;20185;-72
2022/12/26 04:46:51;;;;;;;3.88;2.20;;;;;;;;;;5060013;28;20060;-72
2022/12/26 04:52:57;;;;;;;6.40;2.03;;;;;;;;;;5054678;28;20028;-74
2022/12/26 04:55:42;;;;;;;4.78;2.80;;;;;;;;;;5055731;28;20060;-74
2022/12/26 04:58:27;;;;;;;12.35;2.83;;;;;;;;;;5055766;28;20028;-75
2022/12/26 05:10:27;;;;;;;5.57;2.35;;;;;;;;;;5055641;28;20025;-80
2022/12/26 05:13:12;;;;;;;4.90;2.63;;;;;;;;;;5059141;28;20040;-80
2022/12/26 05:31:21;;;;;;;4.03;2.30;;;;;;;;;;5064425;28;20506;-72
2022/12/26 05:34:11;;;;;;;5.03;2.15;;;;;;;;;;5063374;28;20024;-72
2022/12/26 05:36:56;;;;;;;;;;;;;;;;;;5046014;28;20506;-72
2022/12/26 05:39:42;;;;;;;6.97;2.30;;;;;;;;;;5054885;28;19918;-70
2022/12/26 05:42:27;;;;;;;2.92;1.90;;;;;;;;;;5058688;28;20104;-73
2022/12/26 05:45:12;;;;;;;5.75;2.13;;;;;;;;;;5055646;28;20072;-73
2022/12/26 05:47:59;;;;;;;4.05;2.63;;;;;;;;;;5044174;28;20052;-72
2022/12/26 05:50:44;;;;;;;5.03;2.30;;;;;;;;;;5061802;28;20036;-70
2022/12/26 05:53:30;;;;;;;5.22;2.08;;;;;;;;;;5054708;28;20043;-72
2022/12/26 05:56:15;;;;;;;3.72;2.08;;;;;;;;;;5043501;28;20024;-74
2022/12/26 05:59:01;;;;;;;4.97;2.42;;;;;;;;;;5054550;28;20094;-66
2022/12/26 06:01:46;;;;;;;2.90;2.33;;;;;;;;;;5045287;28;20024;-70
2022/12/26 06:04:33;;;;;;;3.72;2.10;;;;;;;;;;5054389;28;20467;-73
2022/12/26 06:07:18;;;;;;;6.22;1.90;;;;;;;;;;5049476;28;20167;-74
2022/12/26 06:10:05;;;;;;;5.60;2.70;;;;;;;;;;5055295;28;20032;-71
2022/12/26 06:12:50;;;;;;;4.53;2.08;;;;;;;;;;5051266;28;20193;-71
2022/12/26 06:15:37;;;;;;;4.18;2.42;;;;;;;;;;5050510;28;20039;-71
2022/12/26 06:18:22;;;;;;;4.05;1.65;;;;;;;;;;5054470;28;20074;-73
2022/12/26 06:21:08;;;;;;;5.65;2.10;;;;;;;;;;5054477;28;20020;-74
2022/12/26 06:23:53;;;;;;;9.73;2.63;;;;;;;;;;5068783;28;20055;-73
2022/12/26 06:26:39;;;;;;;3.60;1.70;;;;;;;;;;5052068;28;20097;-74
2022/12/26 06:29:25;;;;;;;2.88;2.15;;;;;;;;;;5071189;28;20400;-73
2022/12/26 06:32:10;;;;;;;5.97;2.28;;;;;;;;;;5042892;28;20072;-73
2022/12/26 06:34:55;;;;;;;4.55;2.38;;;;;;;;;;5041108;28;20035;-74
2022/12/26 06:37:40;;;;;;;5.15;2.20;;;;;;;;;;5051161;28;20063;-73
2022/12/26 06:40:26;;;;;;;3.97;2.38;;;;;;;;;;5072167;28;20442;-72
2022/12/26 06:43:11;;;;;;;6.53;3.53;;;;;;;;;;5060348;28;20028;-73
2022/12/26 06:45:57;;;;;;;5.25;2.60;;;;;;;;;;5054370;28;20115;-72
2022/12/26 06:48:42;;;;;;;5.30;2.65;;;;;;;;;;5053625;28;20391;-72
2022/12/26 06:51:28;;;;;;;5.70;2.25;;;;;;;;;;5074007;28;20032;-72
2022/12/26 06:54:13;;;;;;;5.03;2.47;;;;;;;;;;5060412;28;20101;-72
2022/12/26 06:56:58;;;;;;;5.20;2.67;;;;;;;;;;5057108;28;20071;-76
2022/12/26 06:59:43;;;;;;;5.95;2.40;;;;;;;;;;5058454;28;20029;-76
2022/12/26 07:02:28;;;;;;;6.43;2.50;;;;;;;;;;5053825;28;20048;-75
2022/12/26 07:05:14;;;;;;;4.63;2.35;;;;;;;;;;5039292;28;20044;-75
2022/12/26 07:07:59;;;;;;;5.05;2.55;;;;;;;;;;5051510;28;20063;-76
2022/12/26 07:10:44;;;;;;;7.20;2.47;;;;;;;;;;5055915;28;20412;-76
2022/12/26 07:13:29;;;;;;;3.53;2.33;;;;;;;;;;5059808;28;20117;-70
2022/12/26 07:16:14;;;;;;;3.97;2.50;;;;;;;;;;5044027;28;20068;-68
2022/12/26 07:19:00;;;;;;;5.97;2.67;;;;;;;;;;5053117;28;20032;-67
2022/12/26 07:21:45;;;;;;;4.85;2.83;;;;;;;;;;5059666;28;20132;-69
2022/12/26 07:24:30;;;;;;;3.72;2.60;;;;;;;;;;5057722;28;20048;-69
2022/12/26 07:27:16;;;;;;;6.13;3.00;;;;;;;;;;5073450;28;20024;-68
2022/12/26 07:30:01;;;;;;;4.72;2.90;;;;;;;;;;5047463;28;20039;-69
2022/12/26 07:32:46;;;;;;;6.32;2.40;;;;;;;;;;5050242;28;20040;-69
2022/12/26 07:35:31;;;;;;;4.50;2.15;;;;;;;;;;5045005;28;20236;-67
2022/12/26 07:38:17;;;;;;;5.50;2.63;;;;;;;;;;5052995;28;20020;-69
2022/12/26 07:41:56;;;;;;;3.72;2.40;;;;;;;;;;5041366;28;20411;-68
2022/12/26 07:44:08;;;;;;;4.97;2.47;;;;;;;;;;5058307;28;20040;-68
2022/12/26 07:46:53;;;;;;;5.43;2.10;;;;;;;;;;5053576;28;20089;-66
2022/12/26 07:49:39;;;;;;;4.45;2.38;;;;;;;;;;5051734;28;20533;-71
2022/12/26 07:52:24;;;;;;;7.35;3.38;;;;;;;;;;5053113;28;20123;-79
2022/12/26 07:55:09;;;;;;;5.43;2.78;;;;;;;;;;5053068;28;20059;-79
2022/12/26 07:57:54;;;;;;;5.32;2.88;;;;;;;;;;5056402;28;20020;-79
2022/12/26 08:00:39;;;;;;;5.68;2.85;;;;;;;;;;5044041;28;20044;-79
2022/12/26 08:03:25;;;;;;;8.57;3.33;;;;;;;;;;5052960;28;20532;-80
2022/12/26 08:06:10;;;;;;;6.20;3.80;;;;;;;;;;5041157;28;20032;-70
2022/12/26 08:08:55;;;;;;;6.72;3.78;;;;;;;;;;5052285;28;20024;-72
2022/12/26 08:11:41;;;;;;;4.63;3.05;;;;;;;;;;5061973;28;20044;-72
2022/12/26 08:14:26;;;;;;;6.53;2.95;;;;;;;;;;5058215;28;20032;-72
2022/12/26 08:17:11;;;;;;;5.72;3.25;;;;;;;;;;5053098;28;20040;-72
2022/12/26 08:19:57;;;;;;;7.50;3.28;;;;;;;;;;5058553;28;20591;-73
2022/12/26 08:22:42;;;;;;;5.32;2.72;;;;;;;;;;5052693;28;20481;-73
2022/12/26 08:25:27;;;;;;;5.30;3.00;;;;;;;;;;5052885;28;20837;-75
2022/12/26 08:28:13;;;;;;;6.07;2.90;;;;;;;;;;5040396;28;20032;-79
2022/12/26 08:30:58;;;;;;;5.70;2.92;;;;;;;;;;5034765;28;20311;-79
2022/12/26 08:33:44;;;;;;;5.07;2.40;;;;;;;;;;5052268;28;20163;-80
2022/12/26 08:36:29;;;;;;;6.13;2.38;;;;;;;;;;5053455;28;20615;-79
2022/12/26 08:39:14;;;;;;;4.00;2.70;;;;;;;;;;5054036;28;20028;-80
2022/12/26 08:42:00;;;;;;;4.72;2.90;;;;;;;;;;5053274;28;20039;-79
2022/12/26 08:44:45;;;;;;;7.07;3.17;;;;;;;;;;5054055;28;20032;-76
2022/12/26 08:47:30;;;;;;;7.60;3.50;;;;;;;;;;5051109;28;20031;-71
2022/12/26 08:50:16;;;;;;;9.77;3.63;;;;;;;;;;5052508;28;20470;-71
2022/12/26 08:53:01;;;;;;;7.57;3.38;;;;;;;;;;5048661;28;20445;-71
2022/12/26 08:55:46;;;;;;;5.90;3.38;;;;;;;;;;5053488;28;20107;-74
2022/12/26 08:58:32;;;;;;;7.55;3.30;;;;;;;;;;5041715;28;20036;-72
2022/12/26 09:01:22;;;;;;;7.75;3.22;;;;;;;;;;5056602;28;20026;-72
2022/12/26 09:04:07;;;;;;;5.97;3.00;;;;;;;;;;5047624;28;20024;-74
2022/12/26 09:06:52;;;;;;;6.70;3.97;;;;;;;;;;5054285;28;20063;-71
2022/12/26 09:09:37;;;;;;;7.25;3.40;;;;;;;;;;5049264;28;20036;-72
2022/12/26 09:12:23;;;;;;;5.22;3.42;;;;;;;;;;5055968;28;20403;-71
2022/12/26 09:15:08;;;;;;;5.60;3.28;;;;;;;;;;5051785;28;20033;-75
2022/12/26 09:17:53;;;;;;;7.57;2.80;;;;;;;;;;5056181;28;20503;-72
2022/12/26 09:20:38;;;;;;;5.18;3.00;;;;;;;;;;5059072;28;20028;-81
2022/12/26 09:23:24;;;;;;;6.22;2.83;;;;;;;;;;5056272;28;20063;-72
2022/12/26 09:26:16;;;;;;;5.13;3.30;;;;;;;;;;5054139;28;20573;-72
2022/12/26 09:29:02;;;;;;;5.18;3.17;;;;;;;;;;5055787;28;20360;-72
2022/12/26 09:31:47;;;;;;;5.57;3.33;;;;;;;;;;5054459;28;20475;-74
2022/12/26 09:34:32;;;;;;;7.07;3.67;;;;;;;;;;5062669;28;20017;-71
2022/12/26 09:37:18;;;;;;;6.00;3.75;;;;;;;;;;5049422;28;20028;-74
2022/12/26 09:40:03;;;;;;;7.95;3.58;;;;;;;;;;5055487;28;20032;-78
2022/12/26 09:42:58;;;;;;;5.57;3.75;;;;;;;;;;5050977;28;20382;-72
2022/12/26 09:46:06;;;;;;;7.20;3.65;;;;;;;;;;5051105;28;20028;-72
2022/12/26 09:48:56;;;;;;;6.05;3.67;;;;;;;;;;5041544;28;20055;-72
2022/12/26 09:51:43;;;;;;;9.60;3.60;;;;;;;;;;5055096;28;20055;-71
2022/12/26 09:54:48;;;;;;;5.10;3.15;;;;;;;;;;5059816;28;20059;-74
2022/12/26 09:57:45;;;;;;;5.03;3.20;;;;;;;;;;5057916;28;20033;-72
2022/12/26 10:00:35;;;;;;;7.75;3.38;;;;;;;;;;5055177;28;20032;-79
2022/12/26 10:03:21;;;;;;;8.98;4.28;;;;;;;;;;5055079;28;20287;-80
2022/12/26 10:06:07;;;;;;;8.75;4.30;;;;;;;;;;5067534;28;20025;-79
2022/12/26 10:09:11;;;;;;;8.88;3.50;;;;;;;;;;5052497;28;20040;-79
2022/12/26 10:12:02;;;;;;;6.20;3.63;;;;;;;;;;5048335;28;20139;-79
2022/12/26 10:14:47;;;;;;;9.88;3.33;;;;;;;;;;5055096;28;20410;-80
2022/12/26 10:17:36;;;;;;;7.50;3.38;;;;;;;;;;5056975;28;20491;-71
2022/12/26 10:20:27;;;;;;;5.80;2.78;;;;;;;;;;5028319;28;20171;-71
2022/12/26 10:23:12;;;;;;;4.93;3.05;;;;;;;;;;5044358;28;20055;-72
2022/12/26 10:26:10;;;;;;;6.68;3.28;;;;;;;;;;5055577;28;20056;-73
2022/12/26 10:28:58;;;;;;;5.93;2.92;;;;;;;;;;5075155;28;20074;-71
2022/12/26 10:31:46;;;;;;;5.15;2.78;;;;;;;;;;5052065;28;20041;-70
2022/12/26 10:34:45;;;;;;;7.45;3.45;;;;;;;;;;5058955;28;20044;-70
2022/12/26 10:37:50;;;;;;;4.38;2.97;;;;;;;;;;5052031;28;20037;-72
2022/12/26 10:40:41;;;;;;;6.32;3.35;;;;;;;;;;5065588;28;20094;-72
2022/12/26 10:43:29;;;;;;;5.90;3.22;;;;;;;;;;5054433;28;20421;-72
2022/12/26 10:46:21;;;;;;;7.90;3.35;;;;;;;;;;5057836;28;20086;-73
2022/12/26 10:49:09;;;;;;;7.22;3.25;;;;;;;;;;5050566;28;20037;-74
2022/12/26 10:51:55;;;;;;;4.18;2.95;;;;;;;;;;5046865;28;20032;-74
2022/12/26 10:54:41;;;;;;;4.88;3.00;;;;;;;;;;5054574;28;20270;-69
2022/12/26 10:57:28;;;;;;;4.47;3.15;;;;;;;;;;5056321;28;20047;-69
2022/12/26 11:00:21;;;;;;;8.40;3.72;;;;;;;;;;5065429;28;20035;-71
2022/12/26 11:03:08;;;;;;;6.65;3.58;;;;;;;;;;5041477;28;20086;-69
2022/12/26 11:05:54;;;;;;;4.53;3.15;;;;;;;;;;5051705;28;20029;-70
2022/12/26 11:08:46;;;;;;;5.93;3.20;;;;;;;;;;5049605;28;20043;-70
2022/12/26 11:11:45;;;;;;;7.95;3.75;;;;;;;;;;5070006;28;20035;-66
2022/12/26 11:14:40;;;;;;;8.23;4.10;;;;;;;;;;5034205;28;20557;-72
2022/12/26 11:17:28;;;;;;;7.65;3.78;;;;;;;;;;5064508;28;20035;-72
2022/12/26 11:20:13;;;;;;;3.33;2.20;;;;;;;;;;5053472;28;20031;-74
2022/12/26 11:23:21;;;;;;;4.30;3.15;;;;;;;;;;5048484;28;20302;-74
2022/12/26 11:26:21;;;;;;;4.93;2.38;;;;;;;;;;5061550;28;20078;-73
2022/12/26 11:29:06;;;;;;;;;;;;;;;;;;5054207;28;20052;-75
2022/12/26 11:31:55;;;;;;;3.72;2.00;;;;;;;;;;5062846;28;20282;-79
2022/12/26 11:34:46;;;;;;;3.28;1.65;;;;;;;;;;5054341;28;20036;-80
2022/12/26 11:37:39;;;;;;;4.70;2.25;;;;;;;;;;5041192;28;20072;-77
2022/12/26 11:40:28;;;;;;;7.22;1.95;;;;;;;;;;5052839;28;20413;-78
2022/12/26 11:43:15;;;;;;;4.55;1.60;;;;;;;;;;5062351;28;20097;-77
2022/12/26 11:46:00;;;;;;;4.00;1.70;;;;;;;;;;5059961;28;20047;-79
2022/12/26 11:48:46;;;;;;;3.50;1.95;;;;;;;;;;5058428;28;20068;-73
2022/12/26 11:51:51;;;;;;;2.78;1.35;;;;;;;;;;5037736;28;20102;-72
2022/12/26 11:54:46;;;;;;;2.03;1.70;;;;;;;;;;5040636;28;20035;-73
2022/12/26 11:57:32;;;;;;;3.13;1.52;;;;;;;;;;5052757;28;20412;-72
2022/12/26 12:00:19;;;;;;;3.22;1.45;;;;;;;;;;5042977;28;20042;-73
2022/12/26 12:03:14;;;;;;;2.75;1.33;;;;;;;;;;5040245;28;20390;-72
2022/12/26 12:06:03;;;;;;;3.65;1.67;;;;;;;;;;5043834;28;20121;-75
2022/12/26 12:08:57;;;;;;;3.08;1.33;;;;;;;;;;5060564;28;20032;-79
2022/12/26 12:11:50;;;;;;;2.35;1.27;;;;;;;;;;5033229;28;20044;-78
2022/12/26 12:14:52;;;;;;;4.20;1.75;;;;;;;;;;5046009;28;20369;-79
2022/12/26 12:17:50;;;;;;;1.42;1.08;;;;;;;;;;5051173;28;20040;-79
2022/12/26 12:20:35;;;;;;;2.05;1.58;;;;;;;;;;5062157;28;20040;-78
2022/12/26 12:23:20;;;;;;;1.80;1.23;;;;;;;;;;5053075;28;20110;-78
2022/12/26 12:26:05;;;;;;;3.10;1.15;;;;;;;;;;5047480;28;20032;-75
2022/12/26 12:28:51;;;;;;;3.15;1.10;;;;;;;;;;5053341;28;20663;-71
2022/12/26 12:31:54;;;;;;;1.25;1.10;;;;;;;;;;5052399;28;20040;-74
2022/12/26 12:34:48;;;;;;;1.90;1.10;;;;;;;;;;5052308;28;20087;-72
2022/12/26 12:37:34;;;;;;;1.77;1.25;;;;;;;;;;5045903;28;20041;-73
2022/12/26 12:40:38;;;;;;;1.95;1.20;;;;;;;;;;5053322;28;20135;-72
2022/12/26 12:43:42;;;;;;;2.25;1.23;;;;;;;;;;5060128;28;20037;-72
2022/12/26 12:46:53;;;;;;;2.33;1.05;;;;;;;;;;5051206;28;20099;-66
2022/12/26 12:50:05;;;;;;;1.13;1.02;;;;;;;;;;5053098;28;20068;-69
2022/12/26 12:52:53;;;;;;;1.60;1.10;;;;;;;;;;5015276;28;20490;-68
2022/12/26 12:55:41;;;;;;;2.05;1.10;;;;;;;;;;5040414;28;20044;-68
2022/12/26 12:58:29;;;;;;;1.08;0.88;;;;;;;;;;5056562;28;20029;-69
2022/12/26 13:01:17;;;;;;;1.23;1.00;;;;;;;;;;5049370;28;20115;-73
2022/12/26 13:04:09;;;;;;;1.13;0.90;;;;;;;;;;5052804;28;20079;-73
2022/12/26 13:06:57;;;;;;;3.10;1.23;;;;;;;;;;5056182;28;20118;-74
2022/12/26 13:09:45;;;;;;;1.00;0.90;;;;;;;;;;5054493;28;20032;-73
2022/12/26 13:12:38;;;;;;;2.28;0.70;;;;;;;;;;5070737;28;20036;-73
2022/12/26 13:15:37;;;;;;;1.48;0.80;;;;;;;;;;5050143;28;20033;-73
2022/12/26 13:18:26;;;;;;;1.15;0.95;;;;;;;;;;5051092;28;20056;-74
2022/12/26 13:21:12;;;;;;;0.90;0.90;;;;;;;;;;5058066;28;20410;-72
2022/12/26 13:27:21;;;;;;;2.35;0.90;;;;;;;;;;5056465;28;20495;-72
2022/12/26 13:30:11;;;;;;;0.98;0.88;;;;;;;;;;5055361;28;20085;-71
2022/12/26 13:32:57;;;;;;;0.70;0.70;;;;;;;;;;5055480;28;20123;-71
2022/12/26 13:35:45;;;;;;;0.73;0.73;;;;;;;;;;5041946;28;20094;-71
2022/12/26 13:38:50;;;;;;;1.58;0.82;;;;;;;;;;5053859;28;20037;-73
2022/12/26 13:44:39;;;;;;;5.55;1.50;;;;;;;;;;5052630;28;20113;-73
2022/12/26 13:47:35;;;;;;;1.35;0.93;;;;;;;;;;5052302;28;20036;-73
2022/12/26 13:50:39;;;;;;;2.03;1.00;;;;;;;;;;5053781;28;20232;-73
2022/12/26 13:53:24;;;;;;;2.40;1.13;;;;;;;;;;5054315;28;20043;-73
2022/12/26 13:56:29;;;;;;;1.25;1.02;;;;;;;;;;5054479;28;20103;-73
2022/12/26 13:59:27;;;;;;;1.60;1.20;;;;;;;;;;5052460;28;20028;-71
2022/12/26 14:02:44;;;;;;;1.73;1.10;;;;;;;;;;5059636;28;20071;-69
2022/12/26 14:05:40;;;;;;;1.65;1.00;;;;;;;;;;5055386;28;20397;-71
2022/12/26 14:08:44;;;;;;;0.85;0.80;;;;;;;;;;5052823;28;20131;-72
2022/12/26 14:11:32;;;;;;;1.38;1.15;;;;;;;;;;5058796;28;20466;-70
2022/12/26 14:14:36;;;;;;;2.67;1.15;;;;;;;;;;5055008;28;20548;-68
2022/12/26 14:17:21;;;;;;;2.83;1.50;;;;;;;;;;5061449;28;20028;-69
2022/12/26 14:20:25;;;;;;;1.42;0.98;;;;;;;;;;5055001;28;20097;-69
2022/12/26 14:23:16;;;;;;;1.75;1.20;;;;;;;;;;5064923;28;20035;-70
2022/12/26 14:26:09;;;;;;;3.97;1.10;;;;;;;;;;5056977;28;20119;-68
2022/12/26 14:28:58;;;;;;;3.42;1.63;;;;;;;;;;5042306;28;20651;-71
2022/12/26 14:31:59;;;;;;;2.17;1.10;;;;;;;;;;5074352;28;20031;-71
2022/12/26 14:34:48;;;;;;;2.20;1.42;;;;;;;;;;5046837;28;20264;-73
2022/12/26 14:37:36;;;;;;;1.45;1.10;;;;;;;;;;5058763;28;20047;-67
2022/12/26 14:40:24;;;;;;;1.98;1.60;;;;;;;;;;5054582;28;20190;-66
2022/12/26 14:43:12;;;;;;;1.88;1.25;;;;;;;;;;5054535;28;20041;-67
2022/12/26 14:45:58;;;;;;;3.50;1.65;;;;;;;;;;5036312;28;20471;-69
2022/12/26 14:48:46;;;;;;;2.30;1.27;;;;;;;;;;5048491;28;20043;-68
2022/12/26 14:51:33;;;;;;;1.40;1.20;;;;;;;;;;5053672;28;20029;-71
2022/12/26 14:54:22;;;;;;;2.65;1.48;;;;;;;;;;5063047;28;20047;-67
2022/12/26 14:57:26;;;;;;;2.17;1.40;;;;;;;;;;5072560;28;20024;-69
2022/12/26 15:00:13;;;;;;;1.75;1.30;;;;;;;;;;5040435;28;20298;-67
2022/12/26 15:03:00;;;;;;;1.45;1.15;;;;;;;;;;5058876;28;20052;-68
2022/12/26 15:05:47;;;;;;;2.00;1.30;;;;;;;;;;5039846;28;20034;-67
2022/12/26 15:08:44;;;;;;;2.67;1.55;;;;;;;;;;5066966;28;20043;-69
2022/12/26 15:11:35;;;;;;;4.28;1.60;;;;;;;;;;5036515;28;20479;-74
2022/12/26 15:14:23;;;;;;;2.45;1.73;;;;;;;;;;5054708;28;20526;-81
2022/12/26 15:17:19;;;;;;;3.25;1.20;;;;;;;;;;5060314;28;20028;-78
2022/12/26 15:20:33;;;;;;;1.98;1.67;;;;;;;;;;5053980;28;20144;-79
2022/12/26 15:23:47;;;;;;;3.97;1.58;;;;;;;;;;5051232;28;20112;-80
2022/12/26 15:26:44;;;;;;;5.60;1.58;;;;;;;;;;5047507;28;20032;-79
2022/12/26 15:29:50;;;;;;;1.38;1.13;;;;;;;;;;5055923;28;20028;-81
2022/12/26 15:32:45;;;;;;;2.83;1.27;;;;;;;;;;5047068;28;20044;-75
2022/12/26 15:35:33;;;;;;;5.03;1.30;;;;;;;;;;5053364;28;20056;-76
2022/12/26 15:38:22;;;;;;;1.45;1.20;;;;;;;;;;5051189;28;20036;-76
2022/12/26 15:41:13;;;;;;;3.63;1.05;;;;;;;;;;5040281;28;20029;-75
2022/12/26 15:44:03;;;;;;;3.08;1.40;;;;;;;;;;5053274;28;20096;-75
2022/12/26 15:47:09;;;;;;;3.78;1.70;;;;;;;;;;5058055;28;20044;-82
2022/12/26 15:49:57;;;;;;;3.85;1.40;;;;;;;;;;5043083;28;20041;-69
2022/12/26 15:52:50;;;;;;;2.15;1.02;;;;;;;;;;5060038;28;20111;-68
2022/12/26 15:55:43;;;;;;;2.55;1.40;;;;;;;;;;5072259;28;20059;-69
2022/12/26 15:58:52;;;;;;;3.30;1.40;;;;;;;;;;5062636;28;20266;-68
2022/12/26 16:01:38;;;;;;;2.53;1.60;;;;;;;;;;5056708;28;20162;-69
2022/12/26 16:04:34;;;;;;;1.25;0.90;;;;;;;;;;5043674;28;20272;-67
2022/12/26 16:07:30;;;;;;;1.33;1.15;;;;;;;;;;5053644;28;20032;-69
2022/12/26 16:10:27;;;;;;;2.88;1.90;;;;;;;;;;5047155;28;20040;-72
2022/12/26 16:13:12;;;;;;;2.53;1.52;;;;;;;;;;5039307;28;20036;-71
2022/12/26 16:15:58;;;;;;;2.40;1.45;;;;;;;;;;5050279;28;20692;-73
2022/12/26 16:18:43;;;;;;;1.45;1.25;;;;;;;;;;5042034;28;20106;-72
2022/12/26 16:24:34;;;;;;;1.98;1.17;;;;;;;;;;5051722;28;20033;-71
2022/12/26 16:27:21;;;;;;;2.53;1.40;;;;;;;;;;5036819;28;20086;-72
2022/12/26 16:30:12;;;;;;;2.20;1.38;;;;;;;;;;5063676;28;20027;-73
2022/12/26 16:32:59;;;;;;;3.58;1.30;;;;;;;;;;5068807;28;20028;-73
2022/12/26 16:35:44;;;;;;;2.35;1.60;;;;;;;;;;5063788;28;20454;-72
2022/12/26 16:38:30;;;;;;;3.25;1.80;;;;;;;;;;5066959;28;20040;-72
2022/12/26 16:41:20;;;;;;;2.97;1.50;;;;;;;;;;5066203;28;20105;-73
2022/12/26 16:44:38;;;;;;;2.67;1.60;;;;;;;;;;5070996;28;20116;-69
2022/12/26 16:47:24;;;;;;;4.95;1.70;;;;;;;;;;5035578;28;20371;-73
2022/12/26 16:50:14;;;;;;;2.90;1.75;;;;;;;;;;5058588;28;20115;-75
2022/12/26 16:53:10;;;;;;;3.75;1.58;;;;;;;;;;5044198;28;20028;-72
2022/12/26 16:56:14;;;;;;;1.60;1.10;;;;;;;;;;5056786;28;20032;-72
2022/12/26 16:59:14;;;;;;;2.80;1.23;;;;;;;;;;5054179;28;20060;-72
2022/12/26 17:01:59;;;;;;;7.60;2.67;;;;;;;;;;5051054;28;20039;-72
2022/12/26 17:04:49;;;;;;;4.97;2.17;;;;;;;;;;5040244;28;20045;-68
2022/12/26 17:07:38;;;;;;;3.92;1.35;;;;;;;;;;5053948;28;20036;-69
2022/12/26 17:10:24;;;;;;;1.67;1.20;;;;;;;;;;5061272;28;20041;-68
2022/12/26 17:13:16;;;;;;;2.88;1.20;;;;;;;;;;5049670;28;20028;-69
2022/12/26 17:16:04;;;;;;;1.40;1.20;;;;;;;;;;5050612;28;20040;-70
2022/12/26 17:18:51;;;;;;;1.77;1.20;;;;;;;;;;5057020;28;20389;-74
2022/12/26 17:21:36;;;;;;;2.70;1.52;;;;;;;;;;5055961;28;20028;-73
2022/12/26 17:24:25;;;;;;;1.83;1.13;;;;;;;;;;5072890;28;20044;-72
2022/12/26 17:27:16;;;;;;;2.40;1.67;;;;;;;;;;5063244;28;20495;-73
2022/12/26 17:30:40;;;;;;;2.38;1.17;;;;;;;;;;5039681;28;20503;-71
2022/12/26 17:33:26;;;;;;;4.32;1.60;;;;;;;;;;4978022;28;20488;-72
2022/12/26 17:36:13;;;;;;;3.20;1.52;;;;;;;;;;4984139;28;20057;-72
2022/12/26 17:39:18;;;;;;;4.25;1.63;;;;;;;;;;4986310;28;20050;-71
2022/12/26 17:42:04;;;;;;;3.40;2.17;;;;;;;;;;4984225;28;20397;-74
2022/12/26 17:44:50;;;;;;;4.32;1.40;;;;;;;;;;4974900;28;20321;-74
2022/12/26 17:47:35;;;;;;;2.50;1.13;;;;;;;;;;4989944;28;20140;-74
2022/12/26 17:50:21;;;;;;;5.63;1.58;;;;;;;;;;4987309;28;20069;-75
2022/12/26 17:53:29;;;;;;;3.00;1.40;;;;;;;;;;4962401;28;20034;-75
2022/12/26 17:56:15;;;;;;;3.25;1.70;;;;;;;;;;4988853;28;20034;-74
2022/12/26 17:59:00;;;;;;;3.38;1.73;;;;;;;;;;4974382;28;20042;-79
2022/12/26 18:01:46;;;;;;;7.13;2.33;;;;;;;;;;4979189;28;20321;-78
2022/12/26 18:04:31;;;;;;;6.13;2.15;;;;;;;;;;5033479;28;20060;-78
2022/12/26 18:07:23;;;;;;;4.18;1.67;;;;;;;;;;5055659;28;20692;-79
2022/12/26 18:10:27;;;;;;;3.78;1.23;;;;;;;;;;5075304;28;20024;-78
2022/12/26 18:13:14;;;;;;;6.72;1.85;;;;;;;;;;5044940;28;20043;-65
2022/12/26 18:15:59;;;;;;;3.40;1.50;;;;;;;;;;5048533;28;20064;-70
2022/12/26 18:18:45;;;;;;;2.55;1.63;;;;;;;;;;5055426;28;20067;-68
2022/12/26 18:21:31;;;;;;;2.17;1.40;;;;;;;;;;5055450;28;20117;-69
2022/12/26 18:24:17;;;;;;;3.33;1.00;;;;;;;;;;5054639;28;20127;-69
2022/12/26 18:27:02;;;;;;;1.67;0.93;;;;;;;;;;5055528;28;20042;-69
2022/12/26 18:29:49;;;;;;;1.85;0.63;;;;;;;;;;5059435;28;20551;-68
2022/12/26 18:32:34;;;;;;;1.98;0.88;;;;;;;;;;5050406;28;20052;-75
2022/12/26 18:35:19;;;;;;;2.08;0.63;;;;;;;;;;5044511;28;20036;-73
2022/12/26 18:38:05;;;;;;;1.08;0.80;;;;;;;;;;5040712;28;20033;-71
2022/12/26 18:40:54;;;;;;;3.30;0.80;;;;;;;;;;5057918;28;20407;-72
2022/12/26 18:43:39;;;;;;;2.05;1.08;;;;;;;;;;5054169;28;20036;-72
2022/12/26 18:46:25;;;;;;;3.05;0.68;;;;;;;;;;5048345;28;20558;-72
2022/12/26 18:49:15;;;;;;;1.15;0.60;;;;;;;;;;5053032;28;20479;-72
2022/12/26 18:52:01;;;;;;;1.38;0.60;;;;;;;;;;5054854;28;20094;-66
2022/12/26 18:54:46;;;;;;;0.93;0.52;;;;;;;;;;5048813;28;20058;-76
2022/12/26 18:57:31;;;;;;;1.20;0.60;;;;;;;;;;5054117;28;20037;-75
2022/12/26 19:00:17;;;;;;;2.05;0.70;;;;;;;;;;5058321;28;20051;-76
2022/12/26 19:03:02;;;;;;;2.10;0.63;;;;;;;;;;5040986;28;20029;-75
2022/12/26 19:05:48;;;;;;;0.70;0.60;;;;;;;;;;5054163;28;20036;-74
2022/12/26 19:08:33;;;;;;;0.40;0.40;;;;;;;;;;5053029;28;20046;-67
2022/12/26 19:11:18;;;;;;;2.47;0.73;;;;;;;;;;5062960;28;20036;-74